createdAt,value
2023-01-13T00:00:50.829Z,21.80
2023-01-13T00:03:17.396Z,21.50
2023-01-13T00:05:44.042Z,21.67
2023-01-13T00:08:10.590Z,21.50
2023-01-13T00:10:37.183Z,19.42
2023-01-13T00:13:04.921Z,21.67
2023-01-13T00:15:32.009Z,20.70
2023-01-13T00:17:58.521Z,19.38
2023-01-13T00:20:25.061Z,19.50
2023-01-13T00:22:51.607Z,20.40
2023-01-13T00:25:18.098Z,20.75
2023-01-13T00:27:44.599Z,19.83
2023-01-13T00:30:11.880Z,19.10
2023-01-13T00:32:39.505Z,18.60
2023-01-13T00:35:06.425Z,19.20
2023-01-13T00:37:35.915Z,20.00
2023-01-13T00:40:02.557Z,19.30
2023-01-13T00:42:47.595Z,20.05
2023-01-13T00:45:14.163Z,19.98
2023-01-13T00:47:40.685Z,19.35
2023-01-13T00:50:07.896Z,19.10
2023-01-13T00:52:34.468Z,19.73
2023-01-13T00:55:01.015Z,18.52
2023-01-13T00:57:27.565Z,19.40
2023-01-13T00:59:54.074Z,18.10
2023-01-13T01:02:20.620Z,19.33
2023-01-13T01:04:47.285Z,18.50
2023-01-13T01:07:13.818Z,19.25
2023-01-13T01:09:40.400Z,18.25
2023-01-13T01:12:07.141Z,19.30
2023-01-13T01:14:33.871Z,18.25
2023-01-13T01:17:00.442Z,19.38
2023-01-13T01:19:27.074Z,19.10
2023-01-13T01:21:54.992Z,19.55
2023-01-13T01:24:23.806Z,18.77
2023-01-13T01:26:50.403Z,17.98
2023-01-13T01:29:17.117Z,20.17
2023-01-13T01:31:44.395Z,19.75
2023-01-13T01:34:11.059Z,19.52
2023-01-13T01:36:37.590Z,18.80
2023-01-13T01:39:04.469Z,18.67
2023-01-13T01:41:33.905Z,19.42
2023-01-13T01:44:38.416Z,20.63
2023-01-13T01:47:05.093Z,18.77
2023-01-13T01:49:35.345Z,18.92
2023-01-13T01:52:21.033Z,19.27
2023-01-13T01:55:27.406Z,20.02
2023-01-13T01:58:04.601Z,19.35
2023-01-13T02:00:31.284Z,19.85
2023-01-13T02:03:00.327Z,19.02
2023-01-13T02:05:27.014Z,20.63
2023-01-13T02:07:56.887Z,17.33
2023-01-13T02:10:27.730Z,19.60
2023-01-13T02:12:57.022Z,18.92
2023-01-13T02:15:33.790Z,18.08
2023-01-13T02:18:31.654Z,19.23
2023-01-13T02:21:16.267Z,19.60
2023-01-13T02:24:27.402Z,18.65
2023-01-13T02:27:22.091Z,19.13
2023-01-13T02:30:23.623Z,19.73
2023-01-13T02:33:15.145Z,19.30
2023-01-13T02:36:06.460Z,19.55
2023-01-13T02:38:39.485Z,18.77
2023-01-13T02:41:37.450Z,18.55
2023-01-13T02:44:08.671Z,18.85
2023-01-13T02:46:57.326Z,18.10
2023-01-13T02:49:32.102Z,20.50
2023-01-13T02:52:08.688Z,19.13
2023-01-13T02:54:39.205Z,18.98
2023-01-13T02:57:08.693Z,18.63
2023-01-13T02:59:36.890Z,18.05
2023-01-13T03:02:04.751Z,17.20
2023-01-13T03:04:43.537Z,19.27
2023-01-13T03:07:16.212Z,18.15
2023-01-13T03:09:57.866Z,18.35
2023-01-13T03:12:50.430Z,19.30
2023-01-13T03:15:25.027Z,18.77
2023-01-13T03:18:07.581Z,17.58
2023-01-13T03:20:41.427Z,18.35
2023-01-13T03:23:28.162Z,17.10
2023-01-13T03:26:04.261Z,17.80
2023-01-13T03:28:36.644Z,19.02
2023-01-13T03:31:12.997Z,20.13
2023-01-13T03:33:45.995Z,17.40
2023-01-13T03:36:17.126Z,18.40
2023-01-13T03:38:49.809Z,19.20
2023-01-13T03:41:29.649Z,18.35
2023-01-13T03:44:22.411Z,17.55
2023-01-13T03:46:51.667Z,17.48
2023-01-13T03:49:22.983Z,18.55
2023-01-13T03:51:55.528Z,17.13
2023-01-13T03:54:25.696Z,16.40
2023-01-13T03:56:59.341Z,17.08
2023-01-13T03:59:31.320Z,16.30
2023-01-13T04:02:24.744Z,17.55
2023-01-13T04:04:58.955Z,16.63
2023-01-13T04:07:46.103Z,15.93
2023-01-13T04:10:18.391Z,15.98
2023-01-13T04:13:02.342Z,16.05
2023-01-13T04:15:38.704Z,16.77
2023-01-13T04:18:24.160Z,16.13
2023-01-13T04:20:53.351Z,15.15
2023-01-13T04:23:21.616Z,14.90
2023-01-13T04:25:48.936Z,15.93
2023-01-13T04:28:16.459Z,15.90
2023-01-13T04:30:43.150Z,15.10
2023-01-13T04:33:10.295Z,15.55
2023-01-13T04:35:37.767Z,15.27
2023-01-13T04:38:09.081Z,15.35
2023-01-13T04:40:36.147Z,14.63
2023-01-13T04:43:03.497Z,15.45
2023-01-13T04:45:30.392Z,14.88
2023-01-13T04:47:56.972Z,15.30
2023-01-13T04:50:24.081Z,14.93
2023-01-13T04:52:51.590Z,15.45
2023-01-13T04:55:19.534Z,15.73
2023-01-13T04:57:46.228Z,16.70
2023-01-13T05:00:15.354Z,15.95
2023-01-13T05:02:41.938Z,13.98
2023-01-13T05:05:09.020Z,15.63
2023-01-13T05:07:35.601Z,13.80
2023-01-13T05:10:02.367Z,12.88
2023-01-13T05:12:47.297Z,14.63
2023-01-13T05:15:33.874Z,13.40
2023-01-13T05:18:01.677Z,14.38
2023-01-13T05:20:28.280Z,16.10
2023-01-13T05:23:13.445Z,15.45
2023-01-13T05:25:44.088Z,14.63
2023-01-13T05:28:11.785Z,14.88
2023-01-13T05:30:44.016Z,15.80
2023-01-13T05:33:12.039Z,14.55
2023-01-13T05:35:40.286Z,14.65
2023-01-13T05:38:07.026Z,15.50
2023-01-13T05:40:52.606Z,14.13
2023-01-13T05:43:24.903Z,14.85
2023-01-13T05:46:00.811Z,14.65
2023-01-13T05:48:33.745Z,15.23
2023-01-13T05:51:01.303Z,15.13
2023-01-13T05:53:27.811Z,16.70
2023-01-13T05:55:54.905Z,15.35
2023-01-13T05:58:23.177Z,15.43
2023-01-13T06:00:50.001Z,15.80
2023-01-13T06:03:19.971Z,15.75
2023-01-13T06:05:47.506Z,15.00
2023-01-13T06:08:14.764Z,14.30
2023-01-13T06:10:41.323Z,14.25
2023-01-13T06:13:07.942Z,14.05
2023-01-13T06:15:34.480Z,14.95
2023-01-13T06:18:02.862Z,14.00
2023-01-13T06:20:29.497Z,13.25
2023-01-13T06:22:56.110Z,15.02
2023-01-13T06:26:16.419Z,15.23
2023-01-13T06:28:41.014Z,14.93
2023-01-13T06:31:10.364Z,14.23
2023-01-13T06:33:40.231Z,15.40
2023-01-13T06:36:16.788Z,15.35
2023-01-13T06:38:46.620Z,15.70
2023-01-13T06:41:13.738Z,16.38
2023-01-13T06:43:40.751Z,14.48
2023-01-13T06:46:07.328Z,15.35
2023-01-13T06:48:35.535Z,17.17
2023-01-13T06:51:03.679Z,16.73
2023-01-13T06:53:30.350Z,19.75
2023-01-13T06:55:56.906Z,15.57
2023-01-13T06:58:23.552Z,14.93
2023-01-13T07:00:51.761Z,13.93
2023-01-13T07:03:19.624Z,15.10
2023-01-13T07:05:53.035Z,14.77
2023-01-13T07:08:20.037Z,13.70
2023-01-13T07:10:46.597Z,14.63
2023-01-13T07:13:31.835Z,15.27
2023-01-13T07:16:04.364Z,18.92
2023-01-13T07:18:32.664Z,14.95
2023-01-13T07:21:01.641Z,14.90
2023-01-13T07:23:30.300Z,14.25
2023-01-13T07:25:58.039Z,15.18
2023-01-13T07:28:25.710Z,15.02
2023-01-13T07:30:52.520Z,15.35
2023-01-13T07:33:19.361Z,15.80
2023-01-13T07:35:46.790Z,16.33
2023-01-13T07:38:13.369Z,16.10
2023-01-13T07:40:40.792Z,17.25
2023-01-13T07:43:26.404Z,16.42
2023-01-13T07:45:58.615Z,16.77
2023-01-13T07:48:26.725Z,14.65
2023-01-13T07:50:53.832Z,15.82
2023-01-13T07:53:21.529Z,16.10
2023-01-13T07:55:48.660Z,16.10
2023-01-13T07:58:15.240Z,16.67
2023-01-13T08:00:41.785Z,16.50
2023-01-13T08:03:08.411Z,16.10
2023-01-13T08:05:35.717Z,16.10
2023-01-13T08:08:02.505Z,16.30
2023-01-13T08:10:29.189Z,15.73
2023-01-13T08:13:14.023Z,14.70
2023-01-13T08:15:40.619Z,16.55
2023-01-13T08:18:07.273Z,19.75
2023-01-13T08:20:34.746Z,20.27
2023-01-13T08:23:01.469Z,16.00
2023-01-13T08:25:29.889Z,16.27
2023-01-13T08:27:57.346Z,14.63
2023-01-13T08:30:23.956Z,16.30
2023-01-13T08:32:50.930Z,15.52
2023-01-13T08:35:18.076Z,13.68
2023-01-13T08:37:45.893Z,14.82
2023-01-13T08:40:13.704Z,13.80
2023-01-13T08:42:40.637Z,13.98
2023-01-13T08:45:08.503Z,14.55
2023-01-13T08:47:35.462Z,12.70
2023-01-13T08:50:02.203Z,13.10
2023-01-13T08:52:29.795Z,12.75
2023-01-13T08:54:56.338Z,13.32
2023-01-13T08:57:23.010Z,13.15
2023-01-13T08:59:49.535Z,12.98
2023-01-13T09:02:21.918Z,12.90
2023-01-13T09:04:49.119Z,13.15
2023-01-13T09:07:18.924Z,11.52
2023-01-13T09:09:45.558Z,11.07
2023-01-13T09:12:33.374Z,11.13
2023-01-13T09:15:00.343Z,11.32
2023-01-13T09:17:27.580Z,13.23
2023-01-13T09:19:54.256Z,14.90
2023-01-13T09:22:21.922Z,12.95
2023-01-13T09:24:48.481Z,11.60
2023-01-13T09:27:15.755Z,12.10
2023-01-13T09:29:42.978Z,10.57
2023-01-13T09:32:13.624Z,10.98
2023-01-13T09:34:59.302Z,11.57
2023-01-13T09:37:38.573Z,10.25
2023-01-13T09:40:09.826Z,11.15
2023-01-13T09:43:00.739Z,14.52
2023-01-13T09:45:30.135Z,10.52
2023-01-13T09:48:06.142Z,10.68
2023-01-13T09:50:38.622Z,10.13
2023-01-13T09:53:12.003Z,9.18
2023-01-13T09:55:38.559Z,10.15
2023-01-13T09:58:14.429Z,10.20
2023-01-13T10:01:10.149Z,10.68
2023-01-13T10:06:18.139Z,9.57
2023-01-13T10:08:47.075Z,10.30
2023-01-13T10:11:35.824Z,10.85
2023-01-13T10:14:15.925Z,10.23
2023-01-13T10:17:06.210Z,10.23
2023-01-13T10:19:37.661Z,10.40
2023-01-13T10:22:16.359Z,10.48
2023-01-13T10:25:01.843Z,10.82
2023-01-13T10:27:39.472Z,10.52
2023-01-13T10:30:19.532Z,10.10
2023-01-13T10:32:55.559Z,9.60
2023-01-13T10:35:48.836Z,10.43
2023-01-13T10:38:21.910Z,10.55
2023-01-13T10:40:50.462Z,9.65
2023-01-13T10:43:17.262Z,9.88
2023-01-13T10:45:55.835Z,9.52
2023-01-13T10:48:22.402Z,11.68
2023-01-13T10:50:49.225Z,13.15
2023-01-13T10:53:23.706Z,9.35
2023-01-13T10:56:02.598Z,10.43
2023-01-13T10:58:29.579Z,10.43
2023-01-13T11:01:05.339Z,10.13
2023-01-13T11:03:45.300Z,9.32
2023-01-13T11:06:21.144Z,10.68
2023-01-13T11:08:50.105Z,10.30
2023-01-13T11:11:35.159Z,9.15
2023-01-13T11:14:25.135Z,9.50
2023-01-13T11:16:57.702Z,8.88
2023-01-13T11:19:28.864Z,9.75
2023-01-13T11:22:06.860Z,8.35
2023-01-13T11:24:40.162Z,9.40
2023-01-13T11:27:12.987Z,9.60
2023-01-13T11:29:55.854Z,10.20
2023-01-13T11:32:24.361Z,9.20
2023-01-13T11:34:57.081Z,8.27
2023-01-13T11:37:32.703Z,9.27
2023-01-13T11:40:16.584Z,8.75
2023-01-13T11:43:12.390Z,9.38
2023-01-13T11:45:42.285Z,9.40
2023-01-13T11:48:14.732Z,8.75
2023-01-13T11:50:51.243Z,8.50
2023-01-13T11:53:36.415Z,8.05
2023-01-13T11:56:17.867Z,7.93
2023-01-13T11:59:18.614Z,8.52
2023-01-13T12:02:11.694Z,8.32
2023-01-13T12:04:56.924Z,8.27
2023-01-13T12:07:42.102Z,8.90
2023-01-13T12:10:42.879Z,8.68
2023-01-13T12:13:48.206Z,8.82
2023-01-13T12:16:23.607Z,10.25
2023-01-13T12:19:09.254Z,11.13
2023-01-13T12:21:56.288Z,9.10
2023-01-13T12:24:31.272Z,8.52
2023-01-13T12:29:33.039Z,8.40
2023-01-13T12:32:03.958Z,8.75
2023-01-13T12:34:51.570Z,8.15
2023-01-13T12:37:35.641Z,8.55
2023-01-13T12:40:23.026Z,8.50
2023-01-13T12:43:21.467Z,8.85
2023-01-13T12:45:48.331Z,8.65
2023-01-13T12:49:00.082Z,8.40
2023-01-13T12:51:51.943Z,8.20
2023-01-13T12:54:30.648Z,8.05
2023-01-13T12:56:58.728Z,8.68
2023-01-13T12:59:25.211Z,8.00
2023-01-13T13:02:11.808Z,8.93
2023-01-13T13:04:56.105Z,7.97
2023-01-13T13:07:31.365Z,7.75
2023-01-13T13:10:19.460Z,8.70
2023-01-13T13:13:04.746Z,8.38
2023-01-13T13:18:03.709Z,8.07
2023-01-13T13:20:53.929Z,8.80
2023-01-13T13:23:39.514Z,8.55
2023-01-13T13:26:15.118Z,9.35
2023-01-13T13:29:06.997Z,9.02
2023-01-13T13:31:42.305Z,9.60
2023-01-13T13:34:34.878Z,8.98
2023-01-13T13:37:17.704Z,8.63
2023-01-13T13:40:03.560Z,8.73
2023-01-13T13:42:59.028Z,9.10
2023-01-13T13:45:45.709Z,9.18
2023-01-13T13:48:26.224Z,10.02
2023-01-13T13:50:59.053Z,8.82
2023-01-13T13:53:28.586Z,9.10
2023-01-13T13:55:57.625Z,10.32
2023-01-13T13:58:26.351Z,10.50
2023-01-13T14:00:54.437Z,10.35
2023-01-13T14:03:22.912Z,10.35
2023-01-13T14:05:54.223Z,9.27
2023-01-13T14:08:21.517Z,9.85
2023-01-13T14:10:48.448Z,9.80
2023-01-13T14:13:20.363Z,9.65
2023-01-13T14:15:49.589Z,9.93
2023-01-13T14:18:19.831Z,9.63
2023-01-13T14:21:02.194Z,9.75
2023-01-13T14:23:31.705Z,9.82
2023-01-13T14:26:07.774Z,10.88
2023-01-13T14:28:38.092Z,10.73
2023-01-13T14:31:07.244Z,9.68
2023-01-13T14:33:37.286Z,10.10
2023-01-13T14:36:08.604Z,10.20
2023-01-13T14:38:35.177Z,10.05
2023-01-13T14:41:27.491Z,10.60
2023-01-13T14:44:01.156Z,9.88
2023-01-13T14:46:38.328Z,11.18
2023-01-13T14:49:14.627Z,9.93
2023-01-13T14:51:41.186Z,11.05
2023-01-13T14:54:42.675Z,10.77
2023-01-13T14:57:27.742Z,10.80
2023-01-13T15:00:15.768Z,10.77
2023-01-13T15:02:57.853Z,10.32
2023-01-13T15:05:27.397Z,12.38
2023-01-13T15:08:27.358Z,11.25
2023-01-13T15:11:02.859Z,12.60
2023-01-13T15:13:29.454Z,15.35
2023-01-13T15:15:58.265Z,19.88
2023-01-13T15:18:24.930Z,14.07
2023-01-13T15:20:51.665Z,13.30
2023-01-13T15:23:19.892Z,13.55
2023-01-13T15:25:47.624Z,13.10
2023-01-13T15:28:22.398Z,21.33
2023-01-13T15:30:51.046Z,12.50
2023-01-13T15:33:18.623Z,11.75
2023-01-13T15:35:48.664Z,12.55
2023-01-13T15:38:18.711Z,12.07
2023-01-13T15:40:46.846Z,12.50
2023-01-13T15:43:45.374Z,11.80
2023-01-13T15:46:30.401Z,11.63
2023-01-13T15:48:57.843Z,12.18
2023-01-13T15:51:26.356Z,12.95
2023-01-13T15:53:52.888Z,11.98
2023-01-13T15:56:25.474Z,10.98
2023-01-13T15:58:52.997Z,12.05
2023-01-13T16:01:19.763Z,23.45
2023-01-13T16:03:46.453Z,14.35
2023-01-13T16:06:19.560Z,12.60
2023-01-13T16:08:46.626Z,11.80
2023-01-13T16:11:13.802Z,10.90
2023-01-13T16:13:40.520Z,12.05
2023-01-13T16:16:27.758Z,12.10
2023-01-13T16:18:55.156Z,12.30
2023-01-13T16:21:23.273Z,11.52
2023-01-13T16:23:53.742Z,10.98
2023-01-13T16:26:29.302Z,19.40
2023-01-13T16:28:57.998Z,13.70
2023-01-13T16:31:26.731Z,11.52
2023-01-13T16:33:53.658Z,12.07
2023-01-13T16:36:21.658Z,10.07
2023-01-13T16:38:50.529Z,11.70
2023-01-13T16:41:17.783Z,11.10
2023-01-13T16:43:44.380Z,11.35
2023-01-13T16:46:20.960Z,11.48
2023-01-13T16:48:48.683Z,10.73
2023-01-13T16:51:15.742Z,11.90
2023-01-13T16:53:42.546Z,11.23
2023-01-13T16:56:20.876Z,10.50
2023-01-13T16:58:47.541Z,10.77
2023-01-13T17:01:23.751Z,9.90
2023-01-13T17:03:51.538Z,8.95
2023-01-13T17:07:04.653Z,8.60
2023-01-13T17:09:31.604Z,9.38
2023-01-13T17:11:58.655Z,9.38
2023-01-13T17:14:25.738Z,9.32
2023-01-13T17:16:55.427Z,10.20
2023-01-13T17:19:23.114Z,10.65
2023-01-13T17:21:51.669Z,9.80
2023-01-13T17:24:18.527Z,9.40
2023-01-13T17:26:49.249Z,8.38
2023-01-13T17:29:22.309Z,9.77
2023-01-13T17:31:52.606Z,9.98
2023-01-13T17:34:20.243Z,11.38
2023-01-13T17:36:46.972Z,10.93
2023-01-13T17:39:16.867Z,12.00
2023-01-13T17:41:43.534Z,11.82
2023-01-13T17:44:13.971Z,12.35
2023-01-13T17:46:42.221Z,12.07
2023-01-13T17:49:12.816Z,11.70
2023-01-13T17:51:39.851Z,12.45
2023-01-13T17:54:06.476Z,13.23
2023-01-13T17:56:33.009Z,12.85
2023-01-13T17:58:59.622Z,12.30
2023-01-13T18:01:30.727Z,13.90
2023-01-13T18:03:57.456Z,13.60
2023-01-13T18:06:24.566Z,14.10
2023-01-13T18:08:52.112Z,13.77
2023-01-13T18:11:21.121Z,14.23
2023-01-13T18:14:00.262Z,13.52
2023-01-13T18:16:30.352Z,12.70
2023-01-13T18:19:18.477Z,16.38
2023-01-13T18:22:04.522Z,15.30
2023-01-13T18:24:49.895Z,13.93
2023-01-13T18:29:55.328Z,14.38
2023-01-13T18:32:29.310Z,14.30
2023-01-13T18:35:05.743Z,13.90
2023-01-13T18:37:35.941Z,14.55
2023-01-13T18:40:03.403Z,13.43
2023-01-13T18:42:48.673Z,14.10
2023-01-13T18:47:42.360Z,14.23
2023-01-13T18:50:09.817Z,13.63
2023-01-13T18:52:36.402Z,15.00
2023-01-13T18:55:03.040Z,14.20
2023-01-13T18:57:29.831Z,14.60
2023-01-13T18:59:58.161Z,14.25
2023-01-13T19:02:26.542Z,13.52
2023-01-13T19:04:53.930Z,13.70
2023-01-13T19:07:29.081Z,13.63
2023-01-13T19:09:56.139Z,12.90
2023-01-13T19:12:26.376Z,13.30
2023-01-13T19:14:57.258Z,13.93
2023-01-13T19:17:25.743Z,15.38
2023-01-13T19:19:57.363Z,13.90
2023-01-13T19:22:35.314Z,13.70
2023-01-13T19:25:05.505Z,13.52
2023-01-13T19:27:32.138Z,15.10
2023-01-13T19:30:00.611Z,13.85
2023-01-13T19:32:28.908Z,13.60
2023-01-13T19:34:59.370Z,14.10
2023-01-13T19:37:30.507Z,13.75
2023-01-13T19:40:00.716Z,13.77
2023-01-13T19:42:46.358Z,13.52
2023-01-13T19:45:27.894Z,12.60
2023-01-13T19:47:55.815Z,12.82
2023-01-13T19:50:22.532Z,14.00
2023-01-13T19:52:49.116Z,13.20
2023-01-13T19:55:15.683Z,14.57
2023-01-13T19:57:43.665Z,13.38
2023-01-13T20:00:12.338Z,14.75
2023-01-13T20:02:44.830Z,14.40
2023-01-13T20:05:12.815Z,14.30
2023-01-13T20:07:40.430Z,14.85
2023-01-13T20:10:07.552Z,15.25
2023-01-13T20:12:34.144Z,14.95
2023-01-13T20:15:00.876Z,14.95
2023-01-13T20:17:28.004Z,14.88
2023-01-13T20:19:54.980Z,15.60
2023-01-13T20:22:21.610Z,16.83
2023-01-13T20:24:53.115Z,15.98
2023-01-13T20:27:19.637Z,16.33
2023-01-13T20:29:46.212Z,15.32
2023-01-13T20:32:12.909Z,15.90
2023-01-13T20:34:39.744Z,16.88
2023-01-13T20:37:06.274Z,16.42
2023-01-13T20:39:34.205Z,16.52
2023-01-13T20:42:19.436Z,16.50
2023-01-13T20:44:49.661Z,14.95
2023-01-13T20:47:16.388Z,16.85
2023-01-13T20:49:43.006Z,16.67
2023-01-13T20:52:12.551Z,15.80
2023-01-13T20:54:40.784Z,15.57
2023-01-13T20:57:10.016Z,17.42
2023-01-13T20:59:39.876Z,17.77
2023-01-13T21:02:10.576Z,17.08
2023-01-13T21:04:37.259Z,15.18
2023-01-13T21:07:04.141Z,16.00
2023-01-13T21:09:31.013Z,16.98
2023-01-13T21:12:16.657Z,17.35
2023-01-13T21:15:15.640Z,16.90
2023-01-13T21:18:01.039Z,16.58
2023-01-13T21:22:57.109Z,17.98
2023-01-13T21:25:24.320Z,18.27
2023-01-13T21:27:54.189Z,18.17
2023-01-13T21:30:20.986Z,17.10
2023-01-13T21:32:47.885Z,18.40
2023-01-13T21:35:15.170Z,18.02
2023-01-13T21:37:43.359Z,17.75
2023-01-13T21:40:13.070Z,19.40
2023-01-13T21:42:58.171Z,18.88
2023-01-13T21:45:42.998Z,17.98
2023-01-13T21:48:09.666Z,18.35
2023-01-13T21:50:37.296Z,19.45
2023-01-13T21:53:04.415Z,20.35
2023-01-13T21:55:32.302Z,19.70
2023-01-13T21:58:14.869Z,19.65
2023-01-13T22:00:43.355Z,18.50
2023-01-13T22:03:14.553Z,20.15
2023-01-13T22:05:41.750Z,20.38
2023-01-13T22:08:08.690Z,21.25
2023-01-13T22:10:35.451Z,20.65
2023-01-13T22:13:23.028Z,20.40
2023-01-13T22:15:49.803Z,21.15
2023-01-13T22:18:18.224Z,20.65
2023-01-13T22:20:45.191Z,21.40
2023-01-13T22:23:12.017Z,21.48
2023-01-13T22:25:38.679Z,21.20
2023-01-13T22:28:06.194Z,22.05
2023-01-13T22:30:33.313Z,21.65
2023-01-13T22:33:00.495Z,21.63
2023-01-13T22:35:27.142Z,22.15
2023-01-13T22:37:53.663Z,20.30
2023-01-13T22:40:20.265Z,22.77
2023-01-13T22:42:46.848Z,22.98
2023-01-13T22:45:14.379Z,22.73
2023-01-13T22:47:41.236Z,23.58
2023-01-13T22:50:09.112Z,22.60
2023-01-13T22:52:35.993Z,22.73
2023-01-13T22:55:02.519Z,21.80
2023-01-13T22:57:36.807Z,24.05
2023-01-13T23:00:14.886Z,23.05
2023-01-13T23:02:41.682Z,22.48
2023-01-13T23:05:08.513Z,23.02
2023-01-13T23:07:35.694Z,22.45
2023-01-13T23:10:02.768Z,23.75
2023-01-13T23:12:29.318Z,22.92
2023-01-13T23:14:55.832Z,22.63
2023-01-13T23:17:22.418Z,23.38
2023-01-13T23:19:48.977Z,23.10
2023-01-13T23:22:15.657Z,23.38
2023-01-13T23:24:42.280Z,23.58
2023-01-13T23:27:08.817Z,23.30
2023-01-13T23:29:35.301Z,21.40
2023-01-13T23:32:01.844Z,23.92
2023-01-13T23:34:28.363Z,24.10
2023-01-13T23:36:54.882Z,23.63
2023-01-13T23:39:21.365Z,24.25
2023-01-13T23:41:47.853Z,24.83
2023-01-13T23:44:14.362Z,24.45
2023-01-13T23:46:40.889Z,24.35
2023-01-13T23:49:07.419Z,23.90
2023-01-13T23:51:34.080Z,24.60
2023-01-13T23:54:00.870Z,22.38
2023-01-13T23:56:29.744Z,24.20
2023-01-13T23:58:57.165Z,23.80
